Time;durP1;ratioP1;P1;durP2;ratioP2;P2;SDS_P1;SDS_P2;PMS_P1;PMS_P2;Temp;Humidity;BMP_temperature;BMP_pressure;BME280_temperature;BME280_humidity;BME280_pressure;Samples;Min_cycle;Max_cycle;Signal;HPM_P1;HPM_P2
2023/03/09 00:01:18;;;;;;;2.90;1.67;;;;;;;16.54;43.10;98525.47;5072251;28;20119;-64
2023/03/09 00:03:46;;;;;;;3.40;1.60;;;;;;;16.50;43.12;98523.28;5072270;28;20405;-64
2023/03/09 00:06:15;;;;;;;2.70;1.60;;;;;;;16.48;43.08;98519.94;5071585;28;20132;-65
2023/03/09 00:08:43;;;;;;;2.92;1.60;;;;;;;16.48;43.26;98530.69;5072151;28;20048;-66
2023/03/09 00:11:14;;;;;;;2.90;1.63;;;;;;;16.44;43.33;98529.38;5071906;28;20068;-65
2023/03/09 00:13:43;;;;;;;2.97;1.50;;;;;;;16.41;43.08;98522.47;5072248;28;20055;-64
2023/03/09 00:16:13;;;;;;;3.40;1.30;;;;;;;16.38;43.27;98525.50;5072199;28;20052;-66
2023/03/09 00:18:41;;;;;;;3.25;1.67;;;;;;;16.38;43.35;98524.66;5070730;28;20048;-64
2023/03/09 00:21:14;;;;;;;3.78;1.90;;;;;;;16.36;43.35;98526.69;5072213;28;20444;-64
2023/03/09 00:23:43;;;;;;;2.75;1.50;;;;;;;16.34;43.37;98526.88;5071925;28;20070;-64
2023/03/09 00:26:13;;;;;;;4.28;1.50;;;;;;;16.33;43.39;98527.88;5071974;28;20075;-64
2023/03/09 00:28:41;;;;;;;3.20;1.80;;;;;;;16.32;43.45;98520.81;5071953;28;20405;-64
2023/03/09 00:31:10;;;;;;;3.67;1.67;;;;;;;16.29;43.45;98526.53;5071906;28;20048;-64
2023/03/09 00:33:38;;;;;;;2.92;1.50;;;;;;;16.26;43.63;98518.78;5071910;28;20063;-65
2023/03/09 00:36:07;;;;;;;2.35;1.30;;;;;;;16.25;43.66;98519.81;5071589;28;20076;-65
2023/03/09 00:38:36;;;;;;;2.83;1.60;;;;;;;16.22;43.58;98523.69;5071807;28;20041;-65
2023/03/09 00:41:04;;;;;;;3.50;1.67;;;;;;;16.23;43.67;98519.16;5071806;28;20469;-65
2023/03/09 00:43:34;;;;;;;2.72;1.50;;;;;;;16.18;43.62;98513.44;5071902;28;20040;-64
2023/03/09 00:46:02;;;;;;;2.60;1.65;;;;;;;16.18;43.74;98513.44;5071662;28;20127;-64
2023/03/09 00:48:30;;;;;;;3.10;1.50;;;;;;;16.14;43.76;98512.09;5071664;28;20045;-64
2023/03/09 00:50:58;;;;;;;3.28;1.70;;;;;;;16.14;43.81;98506.72;5071607;28;20048;-64
2023/03/09 00:53:26;;;;;;;2.80;1.50;;;;;;;16.10;43.76;98498.13;5071890;28;20440;-64
2023/03/09 00:55:55;;;;;;;2.47;1.58;;;;;;;16.12;43.75;98503.38;5071557;28;20048;-64
2023/03/09 00:58:23;;;;;;;2.55;1.45;;;;;;;16.11;43.77;98501.66;5071512;28;20094;-64
2023/03/09 01:00:55;;;;;;;3.45;1.48;;;;;;;16.10;43.81;98497.28;5071549;28;20127;-64
2023/03/09 01:03:24;;;;;;;3.00;1.30;;;;;;;16.06;43.80;98493.28;5071500;28;20083;-63
2023/03/09 01:05:55;;;;;;;2.33;1.40;;;;;;;16.04;43.89;98498.81;5071515;28;20079;-64
2023/03/09 01:08:23;;;;;;;3.15;1.60;;;;;;;16.06;43.92;98493.28;5071623;28;20076;-64
2023/03/09 01:10:52;;;;;;;3.72;1.70;;;;;;;16.03;44.03;98495.28;5071533;28;20408;-64
2023/03/09 01:13:20;;;;;;;3.08;1.50;;;;;;;16.02;44.07;98503.53;5071498;28;20048;-66
2023/03/09 01:15:48;;;;;;;3.47;1.60;;;;;;;15.99;44.05;98496.63;5071400;28;20067;-64
2023/03/09 01:18:18;;;;;;;2.42;1.35;;;;;;;15.97;44.08;98493.28;5073605;28;20048;-64
2023/03/09 01:20:46;;;;;;;3.70;1.60;;;;;;;15.98;44.08;98496.81;5075522;28;20052;-63
2023/03/09 01:23:14;;;;;;;2.20;1.50;;;;;;;15.96;44.21;98496.97;5075517;28;20044;-66
2023/03/09 01:25:42;;;;;;;2.42;1.33;;;;;;;15.95;44.14;98492.59;5075443;28;20052;-64
2023/03/09 01:28:11;;;;;;;3.20;1.60;;;;;;;15.90;44.06;98476.13;5075378;28;20448;-63
2023/03/09 01:30:39;;;;;;;2.25;1.40;;;;;;;15.92;44.16;98468.75;5075159;28;20044;-64
2023/03/09 01:33:07;;;;;;;3.67;1.52;;;;;;;15.91;44.25;98464.38;5075095;28;20041;-64
2023/03/09 01:35:38;;;;;;;3.20;1.60;;;;;;;15.88;44.20;98448.56;5074902;28;20048;-63
2023/03/09 01:38:07;;;;;;;2.58;1.67;;;;;;;15.90;44.30;98453.78;5074796;28;20049;-65
2023/03/09 01:40:35;;;;;;;2.40;1.27;;;;;;;15.86;44.25;98452.44;5074901;28;20102;-63
2023/03/09 01:43:29;;;;;;;3.58;1.85;;;;;;;15.85;44.26;98448.94;5074689;28;20048;-64
2023/03/09 01:46:15;;;;;;;;;;;;;;;15.84;44.41;98451.78;5075308;28;20044;-64
2023/03/09 01:48:44;;;;;;;2.28;1.50;;;;;;;15.83;44.47;98440.19;5074868;28;20428;-64
2023/03/09 01:51:15;;;;;;;2.65;1.55;;;;;;;15.79;44.41;98441.53;5074857;28;20068;-64
2023/03/09 01:53:43;;;;;;;3.05;1.70;;;;;;;15.80;44.59;98440.50;5074843;28;20504;-64
2023/03/09 01:56:12;;;;;;;3.22;1.67;;;;;;;15.79;44.56;98438.84;5074772;28;20094;-65
2023/03/09 01:58:40;;;;;;;2.67;1.50;;;;;;;15.76;44.57;98431.13;5074791;28;20095;-65
2023/03/09 02:01:11;;;;;;;2.80;1.60;;;;;;;15.77;44.69;98434.66;5074647;28;20041;-65
2023/03/09 02:03:45;;;;;;;3.30;1.48;;;;;;;15.74;44.56;98425.91;5074579;28;20045;-65
2023/03/09 02:06:17;;;;;;;2.78;1.60;;;;;;;15.72;44.78;98419.00;5074412;28;20040;-65
2023/03/09 02:08:58;;;;;;;2.85;1.60;;;;;;;15.73;44.66;98413.50;5074531;28;20064;-66
2023/03/09 02:11:27;;;;;;;2.42;1.42;;;;;;;15.66;44.81;98400.91;5074297;28;20131;-64
2023/03/09 02:13:55;;;;;;;3.00;1.50;;;;;;;15.69;44.73;98414.81;5074355;28;20461;-65
2023/03/09 02:16:23;;;;;;;4.03;1.70;;;;;;;15.68;44.75;98415.00;5074173;28;20048;-65
2023/03/09 02:18:52;;;;;;;3.10;1.58;;;;;;;15.69;44.80;98405.91;5074302;28;20072;-63
2023/03/09 02:21:33;;;;;;;3.38;1.60;;;;;;;15.67;44.86;98408.78;5074249;28;20044;-65
2023/03/09 02:24:11;;;;;;;2.85;1.52;;;;;;;15.65;44.86;98393.84;5074272;28;20052;-65
2023/03/09 02:26:44;;;;;;;3.58;1.65;;;;;;;15.63;44.93;98401.22;5074157;28;20621;-65
2023/03/09 02:29:16;;;;;;;;;;;;;;;15.63;44.94;98401.22;5073871;28;20055;-64
2023/03/09 02:31:44;;;;;;;3.42;1.40;;;;;;;15.61;44.86;98393.31;5074095;28;20377;-65
2023/03/09 02:34:13;;;;;;;2.17;1.40;;;;;;;15.62;44.92;98404.91;5073976;28;20048;-64
2023/03/09 02:36:41;;;;;;;2.70;1.58;;;;;;;15.58;45.10;98390.13;5073900;28;20052;-64
2023/03/09 02:39:18;;;;;;;4.38;1.90;;;;;;;15.58;44.97;98399.00;5073605;28;20501;-65
2023/03/09 02:41:46;;;;;;;3.53;1.63;;;;;;;15.57;45.12;98400.03;5073831;28;20048;-64
2023/03/09 02:44:15;;;;;;;2.58;1.40;;;;;;;15.54;45.12;98395.00;5073926;28;20502;-64
2023/03/09 02:46:44;;;;;;;3.03;1.67;;;;;;;15.55;45.07;98395.84;5073800;28;20048;-63
2023/03/09 02:49:12;;;;;;;2.92;1.52;;;;;;;15.52;45.15;98390.78;5073795;28;20097;-64
2023/03/09 02:51:40;;;;;;;3.70;1.60;;;;;;;15.48;45.15;98390.28;5073676;28;20049;-63
2023/03/09 02:54:08;;;;;;;3.00;1.40;;;;;;;15.45;45.19;98388.78;5073491;28;20575;-64
2023/03/09 02:56:36;;;;;;;2.72;1.60;;;;;;;15.48;45.22;98403.72;5073610;28;20044;-63
2023/03/09 02:59:04;;;;;;;3.65;1.60;;;;;;;15.48;45.25;98411.78;5073462;28;20045;-63
2023/03/09 03:01:34;;;;;;;2.80;1.50;;;;;;;15.46;45.21;98411.97;5073571;28;20040;-63
2023/03/09 03:04:02;;;;;;;3.33;1.50;;;;;;;15.48;45.27;98421.69;5073535;28;20040;-63
2023/03/09 03:06:30;;;;;;;2.70;1.42;;;;;;;15.44;45.20;98415.78;5073315;28;20098;-63
2023/03/09 03:08:58;;;;;;;2.78;1.48;;;;;;;15.45;45.40;98421.03;5073281;28;20107;-63
2023/03/09 03:11:26;;;;;;;3.53;1.63;;;;;;;15.44;45.36;98408.59;5073425;28;20045;-64
2023/03/09 03:13:55;;;;;;;3.58;1.48;;;;;;;15.42;45.40;98407.91;5073331;28;20048;-65
2023/03/09 03:16:24;;;;;;;3.05;1.52;;;;;;;15.41;45.36;98416.97;5073239;28;20087;-64
2023/03/09 03:18:53;;;;;;;3.40;1.70;;;;;;;15.40;45.32;98423.34;5073088;28;20044;-64
2023/03/09 03:21:21;;;;;;;3.88;1.73;;;;;;;15.40;45.37;98434.09;5073086;28;20063;-64
2023/03/09 03:23:50;;;;;;;3.20;1.60;;;;;;;15.40;45.44;98431.41;5073101;28;20119;-64
2023/03/09 03:26:18;;;;;;;2.85;1.50;;;;;;;15.38;45.33;98413.78;5072977;28;20074;-64
2023/03/09 03:28:47;;;;;;;3.95;1.70;;;;;;;15.36;45.33;98411.28;5072905;28;20045;-64
2023/03/09 03:31:15;;;;;;;3.08;1.45;;;;;;;15.35;45.40;98423.03;5072887;28;20048;-64
2023/03/09 03:33:43;;;;;;;2.92;1.77;;;;;;;15.35;45.31;98431.09;5073072;28;20048;-64
2023/03/09 03:36:12;;;;;;;3.05;1.80;;;;;;;15.36;45.34;98422.03;5072616;28;20044;-65
2023/03/09 03:38:41;;;;;;;2.90;1.42;;;;;;;15.34;45.38;98421.34;5072498;28;20051;-64
2023/03/09 03:41:09;;;;;;;2.90;1.60;;;;;;;15.36;45.39;98431.94;5071708;28;20509;-64
2023/03/09 03:43:37;;;;;;;2.80;1.50;;;;;;;15.34;45.34;98429.38;5072670;28;20067;-64
2023/03/09 03:46:06;;;;;;;3.78;1.60;;;;;;;15.34;45.41;98434.75;5072532;28;20052;-63
2023/03/09 03:48:34;;;;;;;3.63;1.65;;;;;;;15.33;45.51;98438.47;5072201;28;20099;-64
2023/03/09 03:51:02;;;;;;;3.20;1.70;;;;;;;15.32;45.36;98442.16;5072967;28;20071;-64
2023/03/09 03:53:32;;;;;;;3.45;1.75;;;;;;;15.33;45.36;98443.00;5072495;28;20045;-64
2023/03/09 03:56:02;;;;;;;2.92;1.60;;;;;;;15.33;45.51;98425.03;5072376;28;20097;-64
2023/03/09 03:58:30;;;;;;;3.20;1.52;;;;;;;15.30;45.37;98408.41;5072188;28;20056;-64
2023/03/09 04:00:59;;;;;;;2.95;1.60;;;;;;;15.33;45.34;98416.97;5070944;28;20048;-64
2023/03/09 04:03:27;;;;;;;2.35;1.50;;;;;;;15.31;45.55;98424.34;5072185;28;20052;-64
2023/03/09 04:05:55;;;;;;;2.72;1.48;;;;;;;15.31;45.44;98424.34;5072229;28;20485;-64
2023/03/09 04:08:23;;;;;;;3.35;1.63;;;;;;;15.29;45.57;98418.31;5072355;28;20048;-64
2023/03/09 04:10:53;;;;;;;3.67;1.70;;;;;;;15.30;45.51;98427.22;5072184;28;20048;-64
2023/03/09 04:13:21;;;;;;;3.40;1.60;;;;;;;15.29;45.48;98425.53;5072061;28;20044;-64
2023/03/09 04:15:49;;;;;;;2.20;1.40;;;;;;;15.27;45.46;98417.66;5071857;28;20646;-64
2023/03/09 04:18:17;;;;;;;2.55;1.50;;;;;;;15.26;45.54;98421.34;5072067;28;20066;-63
2023/03/09 04:20:45;;;;;;;3.28;1.60;;;;;;;15.27;45.57;98417.66;5072000;28;20051;-64
2023/03/09 04:23:14;;;;;;;2.30;1.30;;;;;;;15.27;45.50;98411.44;5072059;28;20095;-63
2023/03/09 04:25:42;;;;;;;3.10;1.50;;;;;;;15.25;45.71;98403.56;5071830;28;20052;-65
2023/03/09 04:28:11;;;;;;;2.72;1.55;;;;;;;15.26;45.58;98396.34;5071889;28;20040;-65
2023/03/09 04:30:40;;;;;;;3.40;1.45;;;;;;;15.24;45.56;98391.09;5072016;28;20071;-65
2023/03/09 04:33:08;;;;;;;2.67;1.40;;;;;;;15.25;45.60;98400.00;5072028;28;20085;-65
2023/03/09 04:35:36;;;;;;;2.35;1.40;;;;;;;15.23;45.56;98389.44;5071949;28;20048;-64
2023/03/09 04:38:04;;;;;;;3.00;1.30;;;;;;;15.25;45.54;98408.94;5071835;28;20146;-64
2023/03/09 04:40:32;;;;;;;3.28;1.50;;;;;;;15.26;45.63;98393.66;5071647;28;20060;-63
2023/03/09 04:43:01;;;;;;;2.70;1.35;;;;;;;15.32;45.68;98383.06;5071751;28;20049;-63
2023/03/09 04:45:30;;;;;;;2.78;1.55;;;;;;;15.39;45.84;98364.44;5071689;28;20128;-65
2023/03/09 04:47:59;;;;;;;2.50;1.40;;;;;;;15.50;45.96;98353.34;5071835;28;20048;-63
2023/03/09 04:50:27;;;;;;;2.85;1.50;;;;;;;15.61;45.78;98354.88;5071647;28;20072;-63
2023/03/09 04:52:57;;;;;;;2.15;1.38;;;;;;;15.74;45.58;98357.88;5074938;28;20040;-63
2023/03/09 04:55:25;;;;;;;2.70;1.30;;;;;;;15.87;45.53;98368.09;5078205;28;20052;-64
2023/03/09 04:57:53;;;;;;;2.67;1.38;;;;;;;15.97;45.38;98360.69;5078121;28;20500;-64
2023/03/09 05:00:25;;;;;;;3.03;1.50;;;;;;;16.09;45.20;98358.44;5078205;28;20045;-64
2023/03/09 05:02:54;;;;;;;2.83;1.45;;;;;;;16.20;45.22;98361.59;5078125;28;20083;-64
2023/03/09 05:05:22;;;;;;;3.15;1.27;;;;;;;16.31;45.16;98360.41;5078096;28;20048;-64
2023/03/09 05:07:51;;;;;;;4.05;1.60;;;;;;;16.40;45.00;98364.72;5078145;28;20119;-63
2023/03/09 05:10:19;;;;;;;2.25;1.33;;;;;;;16.45;44.93;98370.41;5078144;28;20559;-64
2023/03/09 05:12:47;;;;;;;1.90;1.20;;;;;;;16.48;44.98;98369.22;5078163;28;20049;-64
2023/03/09 05:15:16;;;;;;;2.40;1.50;;;;;;;16.50;44.93;98365.38;5078109;28;20048;-64
2023/03/09 05:17:44;;;;;;;2.85;1.60;;;;;;;16.52;44.84;98355.25;5078082;28;20063;-66
2023/03/09 05:20:14;;;;;;;2.53;1.38;;;;;;;16.55;44.80;98371.03;5077976;28;20405;-63
2023/03/09 05:22:42;;;;;;;2.75;1.42;;;;;;;16.55;44.86;98360.28;5077942;28;20512;-65
2023/03/09 05:25:10;;;;;;;2.10;1.20;;;;;;;16.55;44.93;98364.81;5077827;28;20115;-65
2023/03/09 05:27:38;;;;;;;2.25;1.40;;;;;;;16.54;44.94;98372.06;5077809;28;20807;-64
2023/03/09 05:30:08;;;;;;;2.90;1.50;;;;;;;16.49;44.73;98366.34;5077902;28;20047;-63
2023/03/09 05:32:36;;;;;;;3.33;1.60;;;;;;;16.52;44.90;98370.56;5077932;28;20053;-64
2023/03/09 05:35:05;;;;;;;2.53;1.42;;;;;;;16.51;44.85;98380.50;5077822;28;20048;-63
2023/03/09 05:37:35;;;;;;;2.95;1.60;;;;;;;16.50;44.91;98373.44;5078186;28;20052;-64
2023/03/09 05:40:05;;;;;;;3.83;1.50;;;;;;;16.49;44.93;98371.75;5077510;28;20056;-64
2023/03/09 05:42:35;;;;;;;3.05;1.55;;;;;;;16.48;44.87;98364.69;5077728;28;20166;-64
2023/03/09 05:45:04;;;;;;;3.05;1.58;;;;;;;16.44;44.88;98351.78;5077689;28;20045;-65
2023/03/09 05:47:33;;;;;;;3.22;1.70;;;;;;;16.44;45.12;98374.13;5077634;28;20461;-64
2023/03/09 05:50:01;;;;;;;3.80;1.60;;;;;;;16.42;44.96;98365.41;5077599;28;20071;-64
2023/03/09 05:52:29;;;;;;;3.35;1.60;;;;;;;16.42;44.97;98360.03;5077742;28;20040;-63
2023/03/09 05:54:58;;;;;;;3.75;1.77;;;;;;;16.38;45.00;98355.97;5077554;28;20079;-64
2023/03/09 05:57:26;;;;;;;2.03;1.33;;;;;;;16.36;45.10;98362.56;5077526;28;20036;-63
2023/03/09 05:59:55;;;;;;;3.03;1.58;;;;;;;16.35;45.13;98375.19;5077290;28;20044;-64
2023/03/09 06:02:23;;;;;;;2.95;1.58;;;;;;;16.33;45.27;98374.53;5077262;28;20079;-64
2023/03/09 06:04:52;;;;;;;3.58;1.60;;;;;;;16.31;45.29;98363.09;5074161;28;20052;-64
2023/03/09 06:07:20;;;;;;;3.47;1.67;;;;;;;16.28;45.21;98358.03;5073957;28;20040;-64
2023/03/09 06:09:48;;;;;;;4.45;1.90;;;;;;;16.24;45.13;98345.97;5074244;28;20458;-64
2023/03/09 06:12:18;;;;;;;2.75;1.60;;;;;;;16.24;45.18;98351.34;5074311;28;20079;-66
2023/03/09 06:14:48;;;;;;;3.78;1.98;;;;;;;16.23;45.18;98349.69;5074264;28;20052;-66
2023/03/09 06:17:16;;;;;;;3.13;1.67;;;;;;;16.19;45.22;98367.16;5074449;28;20049;-66
2023/03/09 06:19:45;;;;;;;2.90;1.52;;;;;;;16.16;45.39;98376.41;5074217;28;20044;-64
2023/03/09 06:22:13;;;;;;;3.30;1.80;;;;;;;16.14;45.21;98374.94;5074882;28;20127;-65
2023/03/09 06:24:42;;;;;;;2.55;1.67;;;;;;;16.11;45.34;98372.56;5075557;28;20110;-65
2023/03/09 06:27:10;;;;;;;5.63;1.77;;;;;;;16.10;45.36;98387.03;5076478;28;20076;-65
2023/03/09 06:29:39;;;;;;;3.65;1.77;;;;;;;16.07;45.44;98392.75;5074275;28;20048;-64
2023/03/09 06:32:08;;;;;;;3.67;1.75;;;;;;;16.05;45.40;98389.41;5073999;28;20103;-65
2023/03/09 06:34:36;;;;;;;4.28;1.88;;;;;;;15.99;45.57;98377.47;5073552;28;20511;-64
2023/03/09 06:37:04;;;;;;;3.60;1.70;;;;;;;16.00;45.56;98387.22;5073654;28;20048;-64
2023/03/09 06:39:32;;;;;;;3.35;2.00;;;;;;;15.98;45.57;98390.09;5073361;28;20059;-65
2023/03/09 06:42:00;;;;;;;3.38;1.42;;;;;;;15.96;45.47;98386.72;5073572;28;20401;-63
2023/03/09 06:44:29;;;;;;;4.22;2.00;;;;;;;15.92;45.63;98382.72;5073800;28;20040;-65
2023/03/09 06:46:58;;;;;;;4.28;2.00;;;;;;;15.91;45.72;98385.56;5073354;28;20051;-65
2023/03/09 06:49:26;;;;;;;5.05;1.95;;;;;;;15.89;45.68;98392.97;5073282;28;20481;-65
2023/03/09 06:51:57;;;;;;;4.13;1.90;;;;;;;15.87;45.73;98403.06;5073207;28;20051;-64
2023/03/09 06:54:25;;;;;;;3.30;1.65;;;;;;;15.83;45.84;98405.25;5073235;28;20036;-65
2023/03/09 06:56:53;;;;;;;3.35;1.92;;;;;;;15.82;45.85;98411.59;5073268;28;20500;-64
2023/03/09 06:59:21;;;;;;;5.03;2.20;;;;;;;15.80;45.85;98413.63;5073117;28;20085;-65
2023/03/09 07:01:49;;;;;;;4.05;2.10;;;;;;;15.79;45.96;98411.13;5073735;28;20051;-64
2023/03/09 07:04:19;;;;;;;4.10;2.10;;;;;;;15.76;45.93;98409.63;5073307;28;20048;-65
2023/03/09 07:06:47;;;;;;;4.07;2.00;;;;;;;15.75;46.00;98413.31;5073393;28;20060;-65
2023/03/09 07:09:15;;;;;;;4.63;1.98;;;;;;;15.73;46.01;98404.59;5073014;28;20041;-64
2023/03/09 07:11:43;;;;;;;4.18;1.95;;;;;;;15.71;46.03;98398.53;5073276;28;20048;-64
2023/03/09 07:14:12;;;;;;;3.95;1.80;;;;;;;15.70;46.18;98404.91;5073016;28;20045;-64
2023/03/09 07:16:40;;;;;;;3.58;1.80;;;;;;;15.68;46.17;98401.56;5072872;28;20045;-64
2023/03/09 07:19:09;;;;;;;4.57;2.10;;;;;;;15.65;46.15;98399.22;5072976;28;20410;-65
2023/03/09 07:21:38;;;;;;;6.13;2.05;;;;;;;15.64;46.32;98393.00;5072907;28;20045;-65
2023/03/09 07:24:07;;;;;;;4.25;2.10;;;;;;;15.59;46.42;98403.38;5072801;28;20055;-65
2023/03/09 07:26:35;;;;;;;5.00;2.03;;;;;;;15.60;46.35;98405.09;5072435;28;20056;-65
2023/03/09 07:29:03;;;;;;;4.28;2.13;;;;;;;15.58;46.70;98420.50;5070930;28;20055;-65
2023/03/09 07:31:32;;;;;;;5.97;2.40;;;;;;;15.56;46.53;98432.44;5072305;28;20139;-66
2023/03/09 07:34:01;;;;;;;6.75;2.58;;;;;;;15.54;46.67;98439.81;5072062;28;20124;-64
2023/03/09 07:36:29;;;;;;;4.28;2.03;;;;;;;15.54;46.63;98439.81;5072015;28;20055;-65
2023/03/09 07:39:00;;;;;;;4.15;2.10;;;;;;;15.53;46.70;98449.72;5072042;28;20161;-66
2023/03/09 07:41:29;;;;;;;4.60;2.15;;;;;;;15.52;46.64;98452.56;5071759;28;20050;-65
2023/03/09 07:43:58;;;;;;;5.38;2.65;;;;;;;15.51;46.68;98448.22;5071914;28;20045;-65
2023/03/09 07:46:26;;;;;;;5.20;2.22;;;;;;;15.48;46.73;98445.88;5071930;28;20052;-65
2023/03/09 07:48:55;;;;;;;3.80;2.08;;;;;;;15.49;46.72;98442.19;5072204;28;20049;-67
2023/03/09 07:51:23;;;;;;;4.57;2.00;;;;;;;15.49;46.73;98437.63;5072221;28;20486;-67
2023/03/09 07:53:51;;;;;;;3.85;2.05;;;;;;;15.48;46.69;98440.50;5072117;28;20045;-66
2023/03/09 07:56:21;;;;;;;6.18;2.35;;;;;;;15.48;46.79;98432.44;5071861;28;20044;-65
2023/03/09 07:58:54;;;;;;;4.93;2.10;;;;;;;15.45;46.71;98442.53;5072206;28;20122;-65
2023/03/09 08:01:23;;;;;;;4.15;2.00;;;;;;;15.44;46.72;98446.22;5071832;28;20063;-66
2023/03/09 08:03:51;;;;;;;4.60;2.08;;;;;;;15.44;46.72;98446.22;5071999;28;20058;-65
2023/03/09 08:06:19;;;;;;;4.80;2.22;;;;;;;15.44;46.82;98435.47;5071925;28;20048;-66
2023/03/09 08:08:48;;;;;;;3.90;1.90;;;;;;;15.45;46.77;98430.94;5072053;28;20048;-66
2023/03/09 08:11:17;;;;;;;4.30;2.10;;;;;;;15.44;46.82;98440.84;5071840;28;20127;-66
2023/03/09 08:13:46;;;;;;;3.60;2.00;;;;;;;15.42;46.86;98440.16;5071929;28;20456;-66
2023/03/09 08:16:14;;;;;;;4.43;1.88;;;;;;;15.44;47.03;98459.66;5071777;28;20048;-65
2023/03/09 08:18:43;;;;;;;3.22;1.80;;;;;;;15.45;46.89;98460.50;5071758;28;20052;-65
2023/03/09 08:21:13;;;;;;;3.95;2.17;;;;;;;15.44;46.90;98467.72;5071523;28;20056;-66
2023/03/09 08:23:43;;;;;;;4.03;2.17;;;;;;;15.43;46.96;98478.59;5071578;28;20119;-66
2023/03/09 08:26:13;;;;;;;4.55;2.00;;;;;;;15.43;46.97;98492.88;5071603;28;20044;-66
2023/03/09 08:28:43;;;;;;;3.83;2.00;;;;;;;15.43;46.91;98492.88;5071050;28;20078;-64
2023/03/09 08:31:16;;;;;;;5.40;2.10;;;;;;;15.43;46.98;98497.41;5071626;28;20466;-67
2023/03/09 08:33:46;;;;;;;4.22;2.10;;;;;;;15.44;46.91;98507.13;5071484;28;20040;-66
2023/03/09 08:36:16;;;;;;;3.28;1.80;;;;;;;15.43;47.00;98503.63;5071646;28;20048;-66
2023/03/09 08:38:45;;;;;;;3.42;1.88;;;;;;;15.43;47.01;98492.88;5071577;28;20044;-65
2023/03/09 08:41:14;;;;;;;3.85;2.00;;;;;;;15.43;47.07;98479.44;5071381;28;20055;-65
2023/03/09 08:43:42;;;;;;;3.72;1.92;;;;;;;15.43;47.05;98474.06;5071526;28;20561;-66
2023/03/09 08:46:11;;;;;;;3.85;2.00;;;;;;;15.43;47.06;98470.53;5071647;28;20124;-65
2023/03/09 08:48:40;;;;;;;4.50;2.08;;;;;;;15.42;47.25;98464.31;5071613;28;20135;-66
2023/03/09 08:51:11;;;;;;;3.78;1.98;;;;;;;15.44;47.21;98472.22;5071353;28;20064;-67
2023/03/09 08:53:39;;;;;;;4.53;2.20;;;;;;;15.43;47.17;98482.13;5071292;28;20380;-66
2023/03/09 08:56:09;;;;;;;4.30;2.00;;;;;;;15.42;47.21;98491.19;5071189;28;20040;-67
2023/03/09 08:58:39;;;;;;;3.95;1.98;;;;;;;15.42;47.18;98471.53;5071430;28;20448;-66
2023/03/09 09:01:09;;;;;;;4.07;1.90;;;;;;;15.43;47.24;98474.06;5071317;28;20090;-66
2023/03/09 09:03:38;;;;;;;3.55;1.92;;;;;;;15.44;47.27;98472.22;5071433;28;20052;-66
2023/03/09 09:06:10;;;;;;;4.45;1.88;;;;;;;15.42;47.36;98474.22;5071708;28;20111;-65
2023/03/09 09:08:38;;;;;;;3.58;2.00;;;;;;;15.44;47.50;98483.84;5071500;28;20056;-66
2023/03/09 09:11:08;;;;;;;3.90;2.08;;;;;;;15.44;47.38;98482.97;5071585;28;20041;-66
2023/03/09 09:13:37;;;;;;;3.50;1.80;;;;;;;15.43;47.55;98474.06;5071540;28;20051;-65
2023/03/09 09:16:06;;;;;;;3.65;2.00;;;;;;;15.45;47.51;98482.81;5071394;28;20048;-66
2023/03/09 09:18:36;;;;;;;4.47;1.90;;;;;;;15.45;47.46;98493.56;5070469;28;20044;-66
2023/03/09 09:21:12;;;;;;;3.60;2.00;;;;;;;15.46;47.88;98503.31;5071614;28;20140;-66
2023/03/09 09:23:43;;;;;;;4.05;2.00;;;;;;;15.44;47.87;98501.78;5071463;28;20482;-66
2023/03/09 09:26:13;;;;;;;4.25;1.90;;;;;;;15.48;47.95;98504.97;5071475;28;20040;-66
2023/03/09 09:28:41;;;;;;;4.85;1.95;;;;;;;15.49;48.00;98503.97;5071363;28;20068;-66
2023/03/09 09:31:15;;;;;;;3.80;1.60;;;;;;;15.48;48.01;98505.81;5071306;28;20118;-65
2023/03/09 09:33:43;;;;;;;;;;;;;;;15.51;48.09;98496.59;5071697;28;20119;-66
2023/03/09 09:36:14;;;;;;;3.38;1.80;;;;;;;15.50;48.05;98494.91;5071378;28;20253;-65
2023/03/09 09:38:43;;;;;;;3.83;1.67;;;;;;;15.53;48.29;98491.88;5071096;28;20045;-65
2023/03/09 09:41:19;;;;;;;3.53;1.67;;;;;;;15.53;48.37;98483.81;5074767;28;20405;-65
2023/03/09 09:43:50;;;;;;;3.60;1.70;;;;;;;15.56;48.38;98480.81;5074791;28;20090;-65
2023/03/09 09:46:21;;;;;;;4.63;1.85;;;;;;;15.57;48.46;98490.56;5074897;28;20079;-66
2023/03/09 09:48:50;;;;;;;4.60;1.77;;;;;;;15.59;48.49;98499.28;5073711;28;20131;-66
2023/03/09 09:51:38;;;;;;;4.13;1.67;;;;;;;15.60;48.66;98500.97;5074781;28;20045;-65
2023/03/09 09:54:13;;;;;;;3.58;1.52;;;;;;;15.63;48.53;98508.72;5074607;28;20072;-65
2023/03/09 09:56:47;;;;;;;3.75;1.95;;;;;;;15.62;48.43;98485.53;5074341;28;20090;-65
2023/03/09 09:59:21;;;;;;;3.35;1.80;;;;;;;15.67;48.34;98488.56;5074356;28;20483;-65
2023/03/09 10:02:02;;;;;;;3.00;1.42;;;;;;;15.71;48.42;98487.22;5074536;28;20044;-66
2023/03/09 10:04:37;;;;;;;3.40;1.63;;;;;;;15.72;48.45;98491.59;5074680;28;20067;-66
2023/03/09 10:07:15;;;;;;;4.72;1.83;;;;;;;15.72;48.58;98502.34;5074357;28;20052;-65
2023/03/09 10:09:46;;;;;;;4.25;1.70;;;;;;;15.75;48.59;98507.41;5074576;28;20044;-66
2023/03/09 10:12:20;;;;;;;3.13;1.48;;;;;;;15.76;48.61;98497.50;5074383;28;20045;-65
2023/03/09 10:14:55;;;;;;;3.80;1.58;;;;;;;15.79;48.60;98511.41;5073116;28;20090;-66
2023/03/09 10:17:29;;;;;;;4.75;1.70;;;;;;;15.80;48.70;98515.78;5074223;28;20076;-65
2023/03/09 10:20:01;;;;;;;2.60;1.48;;;;;;;15.83;48.80;98517.31;5074667;28;20060;-65
2023/03/09 10:22:33;;;;;;;3.83;1.77;;;;;;;15.84;48.72;98511.78;5074422;28;20410;-64
2023/03/09 10:25:01;;;;;;;3.90;1.70;;;;;;;15.85;48.76;98512.63;5074287;28;20554;-66
2023/03/09 10:27:36;;;;;;;3.35;1.60;;;;;;;15.87;48.66;98508.75;5074143;28;20090;-66
2023/03/09 10:30:16;;;;;;;2.97;1.58;;;;;;;15.85;48.77;98513.44;5074045;28;20044;-65
2023/03/09 10:32:52;;;;;;;3.53;1.83;;;;;;;15.91;48.75;98514.59;5074110;28;20481;-65
2023/03/09 10:35:26;;;;;;;3.25;1.50;;;;;;;15.92;48.71;98519.84;5073956;28;20376;-65
2023/03/09 10:37:55;;;;;;;2.95;1.70;;;;;;;15.94;48.70;98515.13;5073846;28;20446;-66
2023/03/09 10:40:26;;;;;;;2.83;1.42;;;;;;;15.95;48.78;98519.50;5072324;28;20083;-65
2023/03/09 10:42:58;;;;;;;3.72;1.60;;;;;;;15.96;48.68;98521.19;5073699;28;20489;-66
2023/03/09 10:45:28;;;;;;;2.70;1.50;;;;;;;15.98;48.82;98523.69;5073813;28;20448;-66
2023/03/09 10:48:00;;;;;;;2.83;1.40;;;;;;;15.99;48.76;98520.81;5073641;28;20051;-65
2023/03/09 10:50:36;;;;;;;3.30;1.73;;;;;;;16.00;48.76;98527.88;5072961;28;20059;-66
2023/03/09 10:53:27;;;;;;;3.53;1.50;;;;;;;16.02;48.71;98522.38;5073313;28;20068;-66
2023/03/09 10:56:03;;;;;;;3.45;1.40;;;;;;;16.05;48.70;98530.09;5073322;28;20127;-65
2023/03/09 10:58:35;;;;;;;3.63;1.42;;;;;;;16.07;48.73;98533.44;5073070;28;20084;-65
2023/03/09 11:01:05;;;;;;;2.08;1.20;;;;;;;16.08;48.65;98528.91;5073250;28;20055;-66
2023/03/09 11:03:36;;;;;;;2.50;1.30;;;;;;;16.08;48.84;98531.59;5072994;28;20102;-66
2023/03/09 11:06:29;;;;;;;4.35;1.15;;;;;;;16.09;48.82;98530.56;5073301;28;20052;-66
2023/03/09 11:09:01;;;;;;;;;;;;;;;16.10;48.73;98527.72;5074226;28;20052;-66
2023/03/09 11:11:44;;;;;;;2.45;1.17;;;;;;;16.11;48.78;98518.63;5073869;28;20361;-65
2023/03/09 11:14:25;;;;;;;2.42;1.23;;;;;;;16.12;48.85;98517.66;5074414;28;20438;-66
2023/03/09 11:16:55;;;;;;;3.10;1.20;;;;;;;16.13;48.87;98510.41;5075439;28;20049;-67
2023/03/09 11:19:25;;;;;;;2.22;1.10;;;;;;;16.14;48.95;98522.84;5074826;28;20551;-65
2023/03/09 11:22:01;;;;;;;2.13;1.30;;;;;;;16.14;48.80;98507.56;5073113;28;20045;-66
2023/03/09 11:24:38;;;;;;;2.75;1.30;;;;;;;16.14;48.81;98518.31;5073049;28;20083;-67
2023/03/09 11:27:12;;;;;;;2.28;1.15;;;;;;;16.14;48.80;98512.94;5072787;28;20486;-67
2023/03/09 11:29:51;;;;;;;2.25;1.10;;;;;;;16.17;48.89;98520.66;5072785;28;20397;-67
2023/03/09 11:32:19;;;;;;;2.95;1.40;;;;;;;16.17;49.07;98527.88;5072861;28;20053;-65
2023/03/09 11:34:48;;;;;;;2.20;1.25;;;;;;;16.20;48.88;98525.69;5072722;28;20051;-67
2023/03/09 11:37:19;;;;;;;3.30;1.40;;;;;;;16.21;48.89;98526.53;5072623;28;20123;-65
2023/03/09 11:39:54;;;;;;;3.55;1.58;;;;;;;16.23;48.87;98533.44;5072475;28;20052;-66
2023/03/09 11:42:32;;;;;;;2.60;1.40;;;;;;;16.23;48.92;98565.72;5072418;28;20143;-66
2023/03/09 11:45:02;;;;;;;3.28;1.48;;;;;;;16.20;48.87;98546.38;5072286;28;20075;-66
2023/03/09 11:47:38;;;;;;;2.15;1.30;;;;;;;16.24;48.81;98550.41;5072475;28;20048;-67